Decoded Metar for LQBK (BANJA LUKA in BOSNIA-HERCEGOVINA) (IATA:N/A) | Meteo·Mobile Aviation Weather
aviador You're here:

LQBK Decoded Metar

BANJA LUKA in BOSNIA-HERCEGOVINA
Report Time2019-04-19 22:30:00
UTC Time2019-04-19 22:45:08
Flight Rules vfr VFR
Wind160° at 05 kt
W.Decomp.*RWY 17: 4.9 kt HW 1 kt LCW
Visibility9999 m
Phenomena:N/A
Clouds:N/A
Expected CloudBase > 1,200 ft AGL from Temp-Dew spread
CeilingNone
Temp09°C (ISA -5)
Dew Point06°C (82% RH)
AAT6.3°C
QNH1027 hPa
Density Alt-568 ft
Elevation400 ft
Report Wrong Elevation
Raw Report
METAR LQBK 192230Z 16005KT CAVOK 09/06 Q1027 NOSIG=

Extra information for LQBK:More info

Metar Taf Metar & Taf Last 4 Metars F.Rules Stats Wind Profile Meteogram Temp Stats Airport Information Weather charts Add Link Nearby VenuesMetar ALERT Operation Metar Decoded Social comments